sensor_id;sensor_type;location;lat;lon;timestamp;P1;durP1;ratioP1;P2;durP2;ratioP2
75171;SDS011;63750;52.418;20.742;2022-10-31T00:01:22;49.30;;;43.90;;
75171;SDS011;63750;52.418;20.742;2022-10-31T00:03:53;47.50;;;42.30;;
75171;SDS011;63750;52.418;20.742;2022-10-31T00:06:21;45.80;;;40.90;;
75171;SDS011;63750;52.418;20.742;2022-10-31T00:08:53;44.70;;;40.00;;
75171;SDS011;63750;52.418;20.742;2022-10-31T00:11:22;46.70;;;40.50;;
75171;SDS011;63750;52.418;20.742;2022-10-31T00:13:51;45.80;;;40.30;;
75171;SDS011;63750;52.418;20.742;2022-10-31T00:16:20;44.10;;;39.40;;
75171;SDS011;63750;52.418;20.742;2022-10-31T00:18:49;45.50;;;40.50;;
75171;SDS011;63750;52.418;20.742;2022-10-31T00:21:19;44.70;;;39.90;;
75171;SDS011;63750;52.418;20.742;2022-10-31T00:23:48;46.20;;;41.20;;
75171;SDS011;63750;52.418;20.742;2022-10-31T00:26:16;49.40;;;40.80;;
75171;SDS011;63750;52.418;20.742;2022-10-31T00:28:45;47.10;;;40.60;;
75171;SDS011;63750;52.418;20.742;2022-10-31T00:31:14;50.30;;;42.00;;
75171;SDS011;63750;52.418;20.742;2022-10-31T00:33:42;49.90;;;41.80;;
75171;SDS011;63750;52.418;20.742;2022-10-31T00:36:12;50.70;;;43.00;;
75171;SDS011;63750;52.418;20.742;2022-10-31T00:38:42;39.20;;;35.10;;
75171;SDS011;63750;52.418;20.742;2022-10-31T00:41:12;38.00;;;33.90;;
75171;SDS011;63750;52.418;20.742;2022-10-31T00:43:42;38.50;;;32.20;;
75171;SDS011;63750;52.418;20.742;2022-10-31T00:46:11;39.50;;;34.00;;
75171;SDS011;63750;52.418;20.742;2022-10-31T00:48:40;42.30;;;36.10;;
75171;SDS011;63750;52.418;20.742;2022-10-31T00:51:08;40.80;;;36.30;;
75171;SDS011;63750;52.418;20.742;2022-10-31T00:53:37;44.60;;;36.10;;
75171;SDS011;63750;52.418;20.742;2022-10-31T00:56:06;41.40;;;34.30;;
75171;SDS011;63750;52.418;20.742;2022-10-31T00:58:35;38.80;;;34.10;;
75171;SDS011;63750;52.418;20.742;2022-10-31T01:01:03;37.00;;;32.00;;
75171;SDS011;63750;52.418;20.742;2022-10-31T01:03:32;40.80;;;34.20;;
75171;SDS011;63750;52.418;20.742;2022-10-31T01:06:02;36.40;;;32.40;;
75171;SDS011;63750;52.418;20.742;2022-10-31T01:08:32;35.80;;;31.70;;
75171;SDS011;63750;52.418;20.742;2022-10-31T01:11:03;35.20;;;31.40;;
75171;SDS011;63750;52.418;20.742;2022-10-31T01:13:33;37.80;;;33.70;;
75171;SDS011;63750;52.418;20.742;2022-10-31T01:16:02;36.80;;;32.20;;
75171;SDS011;63750;52.418;20.742;2022-10-31T01:18:32;37.10;;;33.10;;
75171;SDS011;63750;52.418;20.742;2022-10-31T01:21:02;38.90;;;33.60;;
75171;SDS011;63750;52.418;20.742;2022-10-31T01:23:32;38.10;;;34.00;;
75171;SDS011;63750;52.418;20.742;2022-10-31T01:26:01;39.00;;;34.80;;
75171;SDS011;63750;52.418;20.742;2022-10-31T01:28:32;40.90;;;35.70;;
75171;SDS011;63750;52.418;20.742;2022-10-31T01:31:02;43.10;;;37.30;;
75171;SDS011;63750;52.418;20.742;2022-10-31T01:33:32;42.30;;;35.40;;
75171;SDS011;63750;52.418;20.742;2022-10-31T01:36:01;39.60;;;34.90;;
75171;SDS011;63750;52.418;20.742;2022-10-31T01:38:37;38.00;;;33.90;;
75171;SDS011;63750;52.418;20.742;2022-10-31T01:41:05;38.80;;;34.60;;
75171;SDS011;63750;52.418;20.742;2022-10-31T01:43:44;38.40;;;33.50;;
75171;SDS011;63750;52.418;20.742;2022-10-31T01:46:15;35.70;;;31.80;;
75171;SDS011;63750;52.418;20.742;2022-10-31T01:48:49;36.30;;;32.50;;
75171;SDS011;63750;52.418;20.742;2022-10-31T01:51:19;35.50;;;31.80;;
75171;SDS011;63750;52.418;20.742;2022-10-31T01:53:51;35.00;;;31.30;;
75171;SDS011;63750;52.418;20.742;2022-10-31T01:56:23;34.60;;;31.20;;
75171;SDS011;63750;52.418;20.742;2022-10-31T01:58:53;33.40;;;30.00;;
75171;SDS011;63750;52.418;20.742;2022-10-31T02:01:26;33.60;;;30.20;;
75171;SDS011;63750;52.418;20.742;2022-10-31T02:03:56;34.90;;;31.40;;
75171;SDS011;63750;52.418;20.742;2022-10-31T02:06:29;34.00;;;30.60;;
75171;SDS011;63750;52.418;20.742;2022-10-31T02:09:06;33.90;;;30.30;;
75171;SDS011;63750;52.418;20.742;2022-10-31T02:11:35;35.30;;;31.50;;
75171;SDS011;63750;52.418;20.742;2022-10-31T02:14:04;37.80;;;33.60;;
75171;SDS011;63750;52.418;20.742;2022-10-31T02:16:33;38.70;;;32.80;;
75171;SDS011;63750;52.418;20.742;2022-10-31T02:19:01;38.90;;;34.70;;
75171;SDS011;63750;52.418;20.742;2022-10-31T02:21:33;40.50;;;35.00;;
75171;SDS011;63750;52.418;20.742;2022-10-31T02:24:17;39.20;;;34.40;;
75171;SDS011;63750;52.418;20.742;2022-10-31T02:27:21;37.40;;;32.50;;
75171;SDS011;63750;52.418;20.742;2022-10-31T02:30:07;38.70;;;34.40;;
75171;SDS011;63750;52.418;20.742;2022-10-31T02:32:48;42.10;;;36.30;;
75171;SDS011;63750;52.418;20.742;2022-10-31T02:35:28;43.90;;;37.50;;
75171;SDS011;63750;52.418;20.742;2022-10-31T02:38:06;44.20;;;36.80;;
75171;SDS011;63750;52.418;20.742;2022-10-31T02:40:51;37.80;;;33.50;;
75171;SDS011;63750;52.418;20.742;2022-10-31T02:43:27;41.60;;;34.50;;
75171;SDS011;63750;52.418;20.742;2022-10-31T02:46:03;42.00;;;35.50;;
75171;SDS011;63750;52.418;20.742;2022-10-31T02:48:35;40.10;;;35.80;;
75171;SDS011;63750;52.418;20.742;2022-10-31T02:51:08;42.70;;;36.90;;
75171;SDS011;63750;52.418;20.742;2022-10-31T02:53:38;43.00;;;36.70;;
75171;SDS011;63750;52.418;20.742;2022-10-31T02:56:08;38.90;;;34.50;;
75171;SDS011;63750;52.418;20.742;2022-10-31T02:58:42;41.50;;;35.60;;
75171;SDS011;63750;52.418;20.742;2022-10-31T03:01:25;40.20;;;34.70;;
75171;SDS011;63750;52.418;20.742;2022-10-31T03:04:06;41.00;;;36.00;;
75171;SDS011;63750;52.418;20.742;2022-10-31T03:06:56;42.60;;;38.10;;
75171;SDS011;63750;52.418;20.742;2022-10-31T03:09:32;43.80;;;37.60;;
75171;SDS011;63750;52.418;20.742;2022-10-31T03:12:09;41.90;;;37.30;;
75171;SDS011;63750;52.418;20.742;2022-10-31T03:14:43;40.30;;;36.00;;
75171;SDS011;63750;52.418;20.742;2022-10-31T03:17:17;40.50;;;36.10;;
75171;SDS011;63750;52.418;20.742;2022-10-31T03:19:52;41.40;;;35.80;;
75171;SDS011;63750;52.418;20.742;2022-10-31T03:22:25;41.80;;;36.80;;
75171;SDS011;63750;52.418;20.742;2022-10-31T03:24:56;40.70;;;36.30;;
75171;SDS011;63750;52.418;20.742;2022-10-31T03:27:29;39.70;;;35.40;;
75171;SDS011;63750;52.418;20.742;2022-10-31T03:30:01;39.00;;;34.50;;
75171;SDS011;63750;52.418;20.742;2022-10-31T03:32:34;41.30;;;36.20;;
75171;SDS011;63750;52.418;20.742;2022-10-31T03:35:06;41.60;;;37.10;;
75171;SDS011;63750;52.418;20.742;2022-10-31T03:37:39;40.30;;;36.00;;
75171;SDS011;63750;52.418;20.742;2022-10-31T03:40:10;45.10;;;38.80;;
75171;SDS011;63750;52.418;20.742;2022-10-31T03:42:46;45.30;;;38.20;;
75171;SDS011;63750;52.418;20.742;2022-10-31T03:45:22;44.60;;;39.70;;
75171;SDS011;63750;52.418;20.742;2022-10-31T03:47:53;44.90;;;40.00;;
75171;SDS011;63750;52.418;20.742;2022-10-31T03:50:23;45.40;;;39.80;;
75171;SDS011;63750;52.418;20.742;2022-10-31T03:53:08;45.20;;;37.80;;
75171;SDS011;63750;52.418;20.742;2022-10-31T03:55:41;41.80;;;36.70;;
75171;SDS011;63750;52.418;20.742;2022-10-31T03:58:17;44.00;;;39.20;;
75171;SDS011;63750;52.418;20.742;2022-10-31T04:00:50;43.80;;;36.40;;
75171;SDS011;63750;52.418;20.742;2022-10-31T04:03:23;39.40;;;34.50;;
75171;SDS011;63750;52.418;20.742;2022-10-31T04:05:56;47.20;;;41.20;;
75171;SDS011;63750;52.418;20.742;2022-10-31T04:08:29;46.90;;;40.90;;
75171;SDS011;63750;52.418;20.742;2022-10-31T04:11:00;46.00;;;39.30;;
75171;SDS011;63750;52.418;20.742;2022-10-31T04:13:33;43.80;;;39.00;;
75171;SDS011;63750;52.418;20.742;2022-10-31T04:16:04;43.10;;;38.40;;
75171;SDS011;63750;52.418;20.742;2022-10-31T04:18:35;41.10;;;36.70;;
75171;SDS011;63750;52.418;20.742;2022-10-31T04:21:03;41.30;;;36.50;;
75171;SDS011;63750;52.418;20.742;2022-10-31T04:23:33;40.20;;;35.80;;
75171;SDS011;63750;52.418;20.742;2022-10-31T04:26:03;41.20;;;36.00;;
75171;SDS011;63750;52.418;20.742;2022-10-31T04:28:31;40.50;;;36.30;;
75171;SDS011;63750;52.418;20.742;2022-10-31T04:30:59;38.50;;;34.50;;
75171;SDS011;63750;52.418;20.742;2022-10-31T04:33:28;38.80;;;33.80;;
75171;SDS011;63750;52.418;20.742;2022-10-31T04:35:56;36.70;;;33.00;;
75171;SDS011;63750;52.418;20.742;2022-10-31T04:38:25;36.80;;;33.00;;
75171;SDS011;63750;52.418;20.742;2022-10-31T04:40:53;35.50;;;31.90;;
75171;SDS011;63750;52.418;20.742;2022-10-31T04:43:21;37.50;;;33.60;;
75171;SDS011;63750;52.418;20.742;2022-10-31T04:45:50;36.70;;;32.80;;
75171;SDS011;63750;52.418;20.742;2022-10-31T04:48:18;37.20;;;33.30;;
75171;SDS011;63750;52.418;20.742;2022-10-31T04:50:47;36.20;;;32.40;;
75171;SDS011;63750;52.418;20.742;2022-10-31T04:53:15;36.40;;;32.50;;
75171;SDS011;63750;52.418;20.742;2022-10-31T04:55:44;34.10;;;30.60;;
75171;SDS011;63750;52.418;20.742;2022-10-31T04:58:12;34.40;;;30.80;;
75171;SDS011;63750;52.418;20.742;2022-10-31T05:00:41;35.70;;;31.00;;
75171;SDS011;63750;52.418;20.742;2022-10-31T05:03:10;35.70;;;32.10;;
75171;SDS011;63750;52.418;20.742;2022-10-31T05:05:39;34.70;;;31.20;;
75171;SDS011;63750;52.418;20.742;2022-10-31T05:08:08;34.60;;;30.90;;
75171;SDS011;63750;52.418;20.742;2022-10-31T05:10:36;34.50;;;31.00;;
75171;SDS011;63750;52.418;20.742;2022-10-31T05:13:05;34.20;;;30.70;;
75171;SDS011;63750;52.418;20.742;2022-10-31T05:15:34;35.30;;;31.80;;
75171;SDS011;63750;52.418;20.742;2022-10-31T05:18:03;35.30;;;31.60;;
75171;SDS011;63750;52.418;20.742;2022-10-31T05:20:31;34.10;;;30.60;;
75171;SDS011;63750;52.418;20.742;2022-10-31T05:23:00;34.90;;;31.20;;
75171;SDS011;63750;52.418;20.742;2022-10-31T05:25:29;35.30;;;31.50;;
75171;SDS011;63750;52.418;20.742;2022-10-31T05:27:57;34.80;;;31.20;;
75171;SDS011;63750;52.418;20.742;2022-10-31T05:30:29;33.00;;;29.60;;
75171;SDS011;63750;52.418;20.742;2022-10-31T05:32:59;33.60;;;30.10;;
75171;SDS011;63750;52.418;20.742;2022-10-31T05:35:28;32.40;;;29.10;;
75171;SDS011;63750;52.418;20.742;2022-10-31T05:37:59;32.80;;;29.50;;
75171;SDS011;63750;52.418;20.742;2022-10-31T05:40:27;34.00;;;30.40;;
75171;SDS011;63750;52.418;20.742;2022-10-31T05:42:56;35.00;;;31.30;;
75171;SDS011;63750;52.418;20.742;2022-10-31T05:45:25;36.30;;;32.50;;
75171;SDS011;63750;52.418;20.742;2022-10-31T05:47:54;37.40;;;33.40;;
75171;SDS011;63750;52.418;20.742;2022-10-31T05:50:24;36.80;;;32.90;;
75171;SDS011;63750;52.418;20.742;2022-10-31T05:52:56;38.20;;;34.10;;
75171;SDS011;63750;52.418;20.742;2022-10-31T05:55:26;38.10;;;34.10;;
75171;SDS011;63750;52.418;20.742;2022-10-31T05:57:56;40.70;;;36.40;;
75171;SDS011;63750;52.418;20.742;2022-10-31T06:00:25;38.40;;;34.10;;
75171;SDS011;63750;52.418;20.742;2022-10-31T06:02:58;39.50;;;35.10;;
75171;SDS011;63750;52.418;20.742;2022-10-31T06:05:29;39.00;;;34.80;;
75171;SDS011;63750;52.418;20.742;2022-10-31T06:07:57;40.40;;;35.50;;
75171;SDS011;63750;52.418;20.742;2022-10-31T06:10:27;39.20;;;35.10;;
75171;SDS011;63750;52.418;20.742;2022-10-31T06:12:55;42.20;;;37.70;;
75171;SDS011;63750;52.418;20.742;2022-10-31T06:15:23;39.80;;;35.40;;
75171;SDS011;63750;52.418;20.742;2022-10-31T06:17:58;40.70;;;36.40;;
75171;SDS011;63750;52.418;20.742;2022-10-31T06:20:29;41.10;;;36.70;;
75171;SDS011;63750;52.418;20.742;2022-10-31T06:22:58;40.40;;;36.10;;
75171;SDS011;63750;52.418;20.742;2022-10-31T06:25:26;41.60;;;37.10;;
75171;SDS011;63750;52.418;20.742;2022-10-31T06:27:55;43.40;;;38.70;;
75171;SDS011;63750;52.418;20.742;2022-10-31T06:30:24;44.00;;;37.70;;
75171;SDS011;63750;52.418;20.742;2022-10-31T06:32:58;42.70;;;37.20;;
75171;SDS011;63750;52.418;20.742;2022-10-31T06:36:10;44.20;;;38.50;;
75171;SDS011;63750;52.418;20.742;2022-10-31T06:38:42;42.70;;;38.10;;
75171;SDS011;63750;52.418;20.742;2022-10-31T06:43:53;42.60;;;38.00;;
75171;SDS011;63750;52.418;20.742;2022-10-31T06:46:40;44.30;;;38.60;;
75171;SDS011;63750;52.418;20.742;2022-10-31T06:49:08;43.50;;;38.70;;
75171;SDS011;63750;52.418;20.742;2022-10-31T06:51:36;45.10;;;40.20;;
75171;SDS011;63750;52.418;20.742;2022-10-31T06:54:05;44.30;;;39.60;;
75171;SDS011;63750;52.418;20.742;2022-10-31T06:56:34;44.50;;;39.70;;
75171;SDS011;63750;52.418;20.742;2022-10-31T06:59:02;44.30;;;39.50;;
75171;SDS011;63750;52.418;20.742;2022-10-31T07:01:31;45.10;;;40.20;;
75171;SDS011;63750;52.418;20.742;2022-10-31T07:04:03;44.00;;;39.30;;
75171;SDS011;63750;52.418;20.742;2022-10-31T07:06:31;46.50;;;41.50;;
75171;SDS011;63750;52.418;20.742;2022-10-31T07:09:00;46.60;;;41.70;;
75171;SDS011;63750;52.418;20.742;2022-10-31T07:11:28;47.50;;;42.30;;
75171;SDS011;63750;52.418;20.742;2022-10-31T07:13:57;47.90;;;42.70;;
75171;SDS011;63750;52.418;20.742;2022-10-31T07:16:26;48.30;;;43.10;;
75171;SDS011;63750;52.418;20.742;2022-10-31T07:18:54;46.80;;;41.80;;
75171;SDS011;63750;52.418;20.742;2022-10-31T07:21:23;44.60;;;39.90;;
75171;SDS011;63750;52.418;20.742;2022-10-31T07:23:51;49.10;;;42.50;;
75171;SDS011;63750;52.418;20.742;2022-10-31T07:26:20;50.10;;;44.60;;
75171;SDS011;63750;52.418;20.742;2022-10-31T07:28:48;46.40;;;41.40;;
75171;SDS011;63750;52.418;20.742;2022-10-31T07:31:16;44.50;;;39.70;;
75171;SDS011;63750;52.418;20.742;2022-10-31T07:33:44;47.70;;;42.40;;
75171;SDS011;63750;52.418;20.742;2022-10-31T07:36:13;43.20;;;38.30;;
75171;SDS011;63750;52.418;20.742;2022-10-31T07:38:42;44.60;;;39.80;;
75171;SDS011;63750;52.418;20.742;2022-10-31T07:41:10;41.50;;;37.00;;
75171;SDS011;63750;52.418;20.742;2022-10-31T07:43:39;43.70;;;38.80;;
75171;SDS011;63750;52.418;20.742;2022-10-31T07:46:07;41.40;;;37.00;;
75171;SDS011;63750;52.418;20.742;2022-10-31T07:48:35;43.00;;;38.30;;
75171;SDS011;63750;52.418;20.742;2022-10-31T07:51:03;42.60;;;38.00;;
75171;SDS011;63750;52.418;20.742;2022-10-31T07:53:32;42.10;;;37.10;;
75171;SDS011;63750;52.418;20.742;2022-10-31T07:56:01;40.60;;;36.40;;
75171;SDS011;63750;52.418;20.742;2022-10-31T07:58:30;42.80;;;38.20;;
75171;SDS011;63750;52.418;20.742;2022-10-31T08:00:58;40.00;;;35.60;;
75171;SDS011;63750;52.418;20.742;2022-10-31T08:03:26;42.90;;;38.20;;
75171;SDS011;63750;52.418;20.742;2022-10-31T08:05:55;44.60;;;39.90;;
75171;SDS011;63750;52.418;20.742;2022-10-31T08:08:24;45.90;;;41.00;;
75171;SDS011;63750;52.418;20.742;2022-10-31T08:10:52;46.80;;;41.70;;
75171;SDS011;63750;52.418;20.742;2022-10-31T08:13:21;43.60;;;39.10;;
75171;SDS011;63750;52.418;20.742;2022-10-31T08:15:49;42.10;;;37.60;;
75171;SDS011;63750;52.418;20.742;2022-10-31T08:18:17;42.90;;;38.40;;
75171;SDS011;63750;52.418;20.742;2022-10-31T08:20:46;43.90;;;38.80;;
75171;SDS011;63750;52.418;20.742;2022-10-31T08:23:14;46.90;;;42.00;;
75171;SDS011;63750;52.418;20.742;2022-10-31T08:25:46;39.00;;;34.70;;
75171;SDS011;63750;52.418;20.742;2022-10-31T08:28:14;40.10;;;35.80;;
75171;SDS011;63750;52.418;20.742;2022-10-31T08:30:42;37.60;;;33.40;;
75171;SDS011;63750;52.418;20.742;2022-10-31T08:33:11;44.20;;;39.30;;
75171;SDS011;63750;52.418;20.742;2022-10-31T08:35:41;40.00;;;35.70;;
75171;SDS011;63750;52.418;20.742;2022-10-31T08:38:09;38.80;;;34.50;;
75171;SDS011;63750;52.418;20.742;2022-10-31T08:40:38;40.20;;;35.90;;
75171;SDS011;63750;52.418;20.742;2022-10-31T08:43:08;37.20;;;33.20;;
75171;SDS011;63750;52.418;20.742;2022-10-31T08:45:40;34.50;;;30.70;;
75171;SDS011;63750;52.418;20.742;2022-10-31T08:48:10;34.50;;;30.80;;
75171;SDS011;63750;52.418;20.742;2022-10-31T08:50:39;33.60;;;30.30;;
75171;SDS011;63750;52.418;20.742;2022-10-31T08:53:10;36.50;;;30.80;;
75171;SDS011;63750;52.418;20.742;2022-10-31T08:55:40;35.80;;;32.00;;
75171;SDS011;63750;52.418;20.742;2022-10-31T08:58:12;34.80;;;31.10;;
75171;SDS011;63750;52.418;20.742;2022-10-31T09:00:41;34.60;;;30.40;;
75171;SDS011;63750;52.418;20.742;2022-10-31T09:03:12;34.10;;;30.50;;
75171;SDS011;63750;52.418;20.742;2022-10-31T09:05:41;35.60;;;31.90;;
75171;SDS011;63750;52.418;20.742;2022-10-31T09:08:09;32.50;;;29.10;;
75171;SDS011;63750;52.418;20.742;2022-10-31T09:10:38;32.80;;;29.50;;
75171;SDS011;63750;52.418;20.742;2022-10-31T09:13:08;34.90;;;31.10;;
75171;SDS011;63750;52.418;20.742;2022-10-31T09:15:39;35.60;;;31.20;;
75171;SDS011;63750;52.418;20.742;2022-10-31T09:18:09;34.00;;;30.40;;
75171;SDS011;63750;52.418;20.742;2022-10-31T09:20:38;34.20;;;30.70;;
75171;SDS011;63750;52.418;20.742;2022-10-31T09:23:09;34.30;;;30.60;;
75171;SDS011;63750;52.418;20.742;2022-10-31T09:25:40;33.60;;;30.20;;
75171;SDS011;63750;52.418;20.742;2022-10-31T09:28:10;33.60;;;30.20;;
75171;SDS011;63750;52.418;20.742;2022-10-31T09:30:41;34.70;;;31.20;;
75171;SDS011;63750;52.418;20.742;2022-10-31T09:33:10;33.70;;;30.10;;
75171;SDS011;63750;52.418;20.742;2022-10-31T09:35:40;35.70;;;31.50;;
75171;SDS011;63750;52.418;20.742;2022-10-31T09:38:10;34.50;;;30.90;;
75171;SDS011;63750;52.418;20.742;2022-10-31T09:40:40;34.40;;;29.60;;
75171;SDS011;63750;52.418;20.742;2022-10-31T09:43:15;32.60;;;29.20;;
75171;SDS011;63750;52.418;20.742;2022-10-31T09:45:53;35.90;;;32.20;;
75171;SDS011;63750;52.418;20.742;2022-10-31T09:48:30;33.50;;;30.00;;
75171;SDS011;63750;52.418;20.742;2022-10-31T09:51:04;33.20;;;29.90;;
75171;SDS011;63750;52.418;20.742;2022-10-31T09:53:38;31.20;;;27.90;;
75171;SDS011;63750;52.418;20.742;2022-10-31T09:56:11;31.80;;;28.50;;
75171;SDS011;63750;52.418;20.742;2022-10-31T09:58:43;31.30;;;28.00;;
75171;SDS011;63750;52.418;20.742;2022-10-31T10:01:22;31.70;;;28.40;;
75171;SDS011;63750;52.418;20.742;2022-10-31T10:03:57;31.60;;;28.40;;
75171;SDS011;63750;52.418;20.742;2022-10-31T10:06:29;31.70;;;28.40;;
75171;SDS011;63750;52.418;20.742;2022-10-31T10:09:02;34.70;;;31.10;;
75171;SDS011;63750;52.418;20.742;2022-10-31T10:11:47;29.20;;;26.30;;
75171;SDS011;63750;52.418;20.742;2022-10-31T10:14:28;29.10;;;26.10;;
75171;SDS011;63750;52.418;20.742;2022-10-31T10:17:09;28.10;;;25.20;;
75171;SDS011;63750;52.418;20.742;2022-10-31T10:19:52;28.20;;;25.40;;
75171;SDS011;63750;52.418;20.742;2022-10-31T10:22:36;26.40;;;23.70;;
75171;SDS011;63750;52.418;20.742;2022-10-31T10:25:12;29.20;;;26.30;;
75171;SDS011;63750;52.418;20.742;2022-10-31T10:30:38;28.30;;;25.40;;
75171;SDS011;63750;52.418;20.742;2022-10-31T10:33:10;28.90;;;25.80;;
75171;SDS011;63750;52.418;20.742;2022-10-31T10:35:41;29.40;;;26.40;;
75171;SDS011;63750;52.418;20.742;2022-10-31T10:38:16;28.00;;;25.10;;
75171;SDS011;63750;52.418;20.742;2022-10-31T10:40:49;27.90;;;25.10;;
75171;SDS011;63750;52.418;20.742;2022-10-31T10:43:20;27.70;;;24.90;;
75171;SDS011;63750;52.418;20.742;2022-10-31T10:46:03;26.30;;;23.50;;
75171;SDS011;63750;52.418;20.742;2022-10-31T10:48:46;25.30;;;22.60;;
75171;SDS011;63750;52.418;20.742;2022-10-31T10:51:23;26.10;;;23.30;;
75171;SDS011;63750;52.418;20.742;2022-10-31T10:54:06;23.20;;;20.80;;
75171;SDS011;63750;52.418;20.742;2022-10-31T10:56:47;24.50;;;21.90;;
75171;SDS011;63750;52.418;20.742;2022-10-31T10:59:27;22.60;;;20.30;;
75171;SDS011;63750;52.418;20.742;2022-10-31T11:01:55;23.90;;;20.40;;
75171;SDS011;63750;52.418;20.742;2022-10-31T11:04:29;22.20;;;19.90;;
75171;SDS011;63750;52.418;20.742;2022-10-31T11:07:00;22.40;;;19.20;;
75171;SDS011;63750;52.418;20.742;2022-10-31T11:09:30;20.50;;;18.40;;
75171;SDS011;63750;52.418;20.742;2022-10-31T11:12:00;20.80;;;18.80;;
75171;SDS011;63750;52.418;20.742;2022-10-31T11:14:42;21.20;;;19.00;;
75171;SDS011;63750;52.418;20.742;2022-10-31T11:17:17;22.80;;;20.30;;
75171;SDS011;63750;52.418;20.742;2022-10-31T11:20:00;20.50;;;18.40;;
75171;SDS011;63750;52.418;20.742;2022-10-31T11:22:30;19.40;;;17.40;;
75171;SDS011;63750;52.418;20.742;2022-10-31T11:24:59;21.60;;;18.00;;
75171;SDS011;63750;52.418;20.742;2022-10-31T11:27:46;21.00;;;18.90;;
75171;SDS011;63750;52.418;20.742;2022-10-31T11:30:25;21.00;;;18.70;;
75171;SDS011;63750;52.418;20.742;2022-10-31T11:32:54;19.90;;;17.60;;
75171;SDS011;63750;52.418;20.742;2022-10-31T11:35:23;18.80;;;16.50;;
75171;SDS011;63750;52.418;20.742;2022-10-31T11:37:53;20.00;;;17.70;;
75171;SDS011;63750;52.418;20.742;2022-10-31T11:40:25;19.70;;;17.60;;
75171;SDS011;63750;52.418;20.742;2022-10-31T11:42:55;19.70;;;17.70;;
75171;SDS011;63750;52.418;20.742;2022-10-31T11:45:29;19.70;;;17.60;;
75171;SDS011;63750;52.418;20.742;2022-10-31T11:47:59;21.50;;;17.80;;
75171;SDS011;63750;52.418;20.742;2022-10-31T11:50:30;21.90;;;18.30;;
75171;SDS011;63750;52.418;20.742;2022-10-31T11:53:02;19.90;;;17.80;;
75171;SDS011;63750;52.418;20.742;2022-10-31T11:55:39;20.00;;;17.80;;
75171;SDS011;63750;52.418;20.742;2022-10-31T11:58:20;20.30;;;17.40;;
75171;SDS011;63750;52.418;20.742;2022-10-31T12:00:50;21.50;;;19.30;;
75171;SDS011;63750;52.418;20.742;2022-10-31T12:03:26;22.30;;;18.90;;
75171;SDS011;63750;52.418;20.742;2022-10-31T12:06:05;22.40;;;19.70;;
75171;SDS011;63750;52.418;20.742;2022-10-31T12:08:38;20.30;;;18.00;;
75171;SDS011;63750;52.418;20.742;2022-10-31T12:11:11;21.20;;;18.90;;
75171;SDS011;63750;52.418;20.742;2022-10-31T12:13:55;20.10;;;18.10;;
75171;SDS011;63750;52.418;20.742;2022-10-31T12:16:33;21.90;;;18.90;;
75171;SDS011;63750;52.418;20.742;2022-10-31T12:19:09;21.20;;;19.00;;
75171;SDS011;63750;52.418;20.742;2022-10-31T12:21:52;20.70;;;18.30;;
75171;SDS011;63750;52.418;20.742;2022-10-31T12:24:38;22.10;;;19.80;;
75171;SDS011;63750;52.418;20.742;2022-10-31T12:27:17;22.90;;;20.50;;
75171;SDS011;63750;52.418;20.742;2022-10-31T12:30:11;22.40;;;20.20;;
75171;SDS011;63750;52.418;20.742;2022-10-31T12:32:58;21.30;;;19.00;;
75171;SDS011;63750;52.418;20.742;2022-10-31T12:35:40;21.70;;;19.40;;
75171;SDS011;63750;52.418;20.742;2022-10-31T12:38:24;23.10;;;20.80;;
75171;SDS011;63750;52.418;20.742;2022-10-31T12:41:09;23.40;;;21.00;;
75171;SDS011;63750;52.418;20.742;2022-10-31T12:43:49;23.90;;;21.60;;
75171;SDS011;63750;52.418;20.742;2022-10-31T12:46:34;24.20;;;21.70;;
75171;SDS011;63750;52.418;20.742;2022-10-31T12:49:20;24.10;;;21.60;;
75171;SDS011;63750;52.418;20.742;2022-10-31T12:52:00;25.10;;;22.50;;
75171;SDS011;63750;52.418;20.742;2022-10-31T12:54:48;27.40;;;22.20;;
75171;SDS011;63750;52.418;20.742;2022-10-31T12:57:27;23.70;;;21.20;;
75171;SDS011;63750;52.418;20.742;2022-10-31T13:00:01;25.30;;;22.40;;
75171;SDS011;63750;52.418;20.742;2022-10-31T13:02:33;26.30;;;22.20;;
75171;SDS011;63750;52.418;20.742;2022-10-31T13:05:11;26.90;;;24.20;;
75171;SDS011;63750;52.418;20.742;2022-10-31T13:07:44;26.30;;;23.50;;
75171;SDS011;63750;52.418;20.742;2022-10-31T13:10:17;25.80;;;23.20;;
75171;SDS011;63750;52.418;20.742;2022-10-31T13:12:49;26.50;;;23.90;;
75171;SDS011;63750;52.418;20.742;2022-10-31T13:15:22;26.90;;;24.00;;
75171;SDS011;63750;52.418;20.742;2022-10-31T13:17:54;29.20;;;26.00;;
75171;SDS011;63750;52.418;20.742;2022-10-31T13:20:27;26.10;;;23.40;;
75171;SDS011;63750;52.418;20.742;2022-10-31T13:23:00;28.20;;;25.30;;
75171;SDS011;63750;52.418;20.742;2022-10-31T13:25:37;28.20;;;25.20;;
75171;SDS011;63750;52.418;20.742;2022-10-31T13:28:12;27.60;;;24.70;;
75171;SDS011;63750;52.418;20.742;2022-10-31T13:30:53;29.60;;;25.20;;
75171;SDS011;63750;52.418;20.742;2022-10-31T13:33:21;30.20;;;25.90;;
75171;SDS011;63750;52.418;20.742;2022-10-31T13:38:48;29.40;;;26.20;;
75171;SDS011;63750;52.418;20.742;2022-10-31T13:41:27;29.10;;;25.20;;
75171;SDS011;63750;52.418;20.742;2022-10-31T13:44:05;29.10;;;26.10;;
75171;SDS011;63750;52.418;20.742;2022-10-31T13:46:39;30.10;;;25.90;;
75171;SDS011;63750;52.418;20.742;2022-10-31T13:49:23;28.60;;;25.40;;
75171;SDS011;63750;52.418;20.742;2022-10-31T13:52:16;29.50;;;26.60;;
75171;SDS011;63750;52.418;20.742;2022-10-31T13:54:50;30.10;;;25.90;;
75171;SDS011;63750;52.418;20.742;2022-10-31T13:57:21;28.20;;;25.20;;
75171;SDS011;63750;52.418;20.742;2022-10-31T13:59:56;28.60;;;25.80;;
75171;SDS011;63750;52.418;20.742;2022-10-31T14:02:27;33.50;;;27.00;;
75171;SDS011;63750;52.418;20.742;2022-10-31T14:04:58;28.40;;;25.40;;
75171;SDS011;63750;52.418;20.742;2022-10-31T14:07:29;29.40;;;26.20;;
75171;SDS011;63750;52.418;20.742;2022-10-31T14:09:59;29.30;;;26.30;;
75171;SDS011;63750;52.418;20.742;2022-10-31T14:12:31;30.20;;;27.10;;
75171;SDS011;63750;52.418;20.742;2022-10-31T14:15:05;33.00;;;29.40;;
75171;SDS011;63750;52.418;20.742;2022-10-31T14:17:46;33.70;;;30.20;;
75171;SDS011;63750;52.418;20.742;2022-10-31T14:20:24;34.60;;;30.10;;
75171;SDS011;63750;52.418;20.742;2022-10-31T14:22:58;35.10;;;30.70;;
75171;SDS011;63750;52.418;20.742;2022-10-31T14:25:36;38.70;;;34.50;;
75171;SDS011;63750;52.418;20.742;2022-10-31T14:28:17;36.60;;;32.70;;
75171;SDS011;63750;52.418;20.742;2022-10-31T14:30:53;38.40;;;34.30;;
75171;SDS011;63750;52.418;20.742;2022-10-31T14:33:24;42.40;;;36.00;;
75171;SDS011;63750;52.418;20.742;2022-10-31T14:35:56;40.30;;;35.20;;
75171;SDS011;63750;52.418;20.742;2022-10-31T14:38:34;43.20;;;37.00;;
75171;SDS011;63750;52.418;20.742;2022-10-31T14:41:21;38.50;;;34.40;;
75171;SDS011;63750;52.418;20.742;2022-10-31T14:44:09;38.60;;;32.90;;
75171;SDS011;63750;52.418;20.742;2022-10-31T14:46:57;36.40;;;32.00;;
75171;SDS011;63750;52.418;20.742;2022-10-31T14:49:40;36.60;;;32.60;;